Time;durP1;ratioP1;P1;durP2;ratioP2;P2;SDS_P1;SDS_P2;PMS_P1;PMS_P2;Temp;Humidity;BMP_temperature;BMP_pressure;BME280_temperature;BME280_humidity;BME280_pressure;Samples;Min_cycle;Max_cycle;Signal;HPM_P1;HPM_P2
2024/01/29 00:01:28;;;;;;;4.72;3.40;;;;;;;2.56;100.00;102373.38;5047867;28;20089;-75
2024/01/29 00:04:14;;;;;;;5.13;3.13;;;;;;;2.52;100.00;102368.97;5047997;28;21599;-75
2024/01/29 00:06:59;;;;;;;5.15;3.42;;;;;;;2.50;100.00;102372.44;5034345;28;20103;-75
2024/01/29 00:09:45;;;;;;;6.15;3.80;;;;;;;2.44;100.00;102368.88;5021069;28;20179;-76
2024/01/29 00:12:31;;;;;;;5.55;3.25;;;;;;;2.41;100.00;102374.03;5046385;28;20032;-75
2024/01/29 00:15:18;;;;;;;6.88;3.70;;;;;;;2.37;100.00;102366.16;5018365;28;20711;-75
2024/01/29 00:18:06;;;;;;;7.28;3.55;;;;;;;2.31;100.00;102367.81;5033750;28;20222;-75
2024/01/29 00:20:51;;;;;;;6.90;3.70;;;;;;;2.28;100.00;102367.78;5032564;28;20144;-75
2024/01/29 00:23:37;;;;;;;5.82;3.75;;;;;;;2.24;100.00;102360.75;5049015;28;20119;-75
2024/01/29 00:26:23;;;;;;;7.00;3.40;;;;;;;2.21;100.00;102365.06;5049704;28;20041;-75
2024/01/29 00:29:09;;;;;;;6.68;3.92;;;;;;;2.17;100.00;102364.13;5046716;28;20157;-75
2024/01/29 00:31:55;;;;;;;6.18;3.30;;;;;;;2.13;100.00;102373.66;5045952;28;20037;-75
2024/01/29 00:34:40;;;;;;;6.97;3.50;;;;;;;2.10;100.00;102368.41;5049056;28;20085;-75
2024/01/29 00:37:26;;;;;;;4.95;3.35;;;;;;;2.07;100.00;102372.72;5046537;28;20037;-75
2024/01/29 00:40:12;;;;;;;7.82;4.25;;;;;;;2.07;100.00;102383.16;5034406;28;20036;-75
2024/01/29 00:42:58;;;;;;;6.82;4.35;;;;;;;2.02;100.00;102386.56;5033376;28;20048;-75
2024/01/29 00:45:44;;;;;;;6.55;3.65;;;;;;;2.01;100.00;102383.94;5049483;28;20044;-75
2024/01/29 00:48:29;;;;;;;7.15;4.05;;;;;;;1.99;100.00;102386.53;5019523;28;20044;-75
2024/01/29 00:51:15;;;;;;;4.60;3.65;;;;;;;1.96;100.00;102381.25;5046729;28;20039;-76
2024/01/29 00:54:02;;;;;;;5.82;3.72;;;;;;;1.94;100.00;102387.31;5047188;28;20178;-75
2024/01/29 00:56:48;;;;;;;5.93;3.50;;;;;;;1.91;100.00;102398.63;5047970;28;20039;-75
2024/01/29 00:59:33;;;;;;;5.22;3.50;;;;;;;1.88;100.00;102402.06;5047225;28;20403;-75
2024/01/29 01:02:19;;;;;;;6.50;3.78;;;;;;;1.85;100.00;102409.81;5048111;28;20045;-76
2024/01/29 01:05:06;;;;;;;6.88;3.97;;;;;;;1.81;100.00;102400.19;5031922;28;20044;-75
2024/01/29 01:07:52;;;;;;;6.00;3.70;;;;;;;1.77;100.00;102403.59;5019182;28;20051;-75
2024/01/29 01:10:38;;;;;;;7.93;4.18;;;;;;;1.74;100.00;102398.34;5048026;28;20028;-75
2024/01/29 01:13:23;;;;;;;6.07;3.58;;;;;;;1.70;100.00;102399.13;5049240;28;20048;-75
2024/01/29 01:16:09;;;;;;;4.93;3.60;;;;;;;1.67;100.00;102410.41;5046885;28;20601;-75
2024/01/29 01:18:55;;;;;;;6.72;3.65;;;;;;;1.63;100.00;102408.56;5047434;28;20040;-75
2024/01/29 01:21:40;;;;;;;6.85;4.15;;;;;;;1.60;100.00;102413.75;5047621;28;20041;-75
2024/01/29 01:24:26;;;;;;;6.10;4.03;;;;;;;1.53;100.00;102417.97;5050719;28;20041;-75
2024/01/29 01:27:16;;;;;;;5.30;3.72;;;;;;;1.51;100.00;102414.47;5033426;28;20094;-75
2024/01/29 01:30:02;;;;;;;5.57;3.50;;;;;;;1.47;100.00;102421.38;5036105;28;20098;-75
2024/01/29 01:32:49;;;;;;;6.03;3.70;;;;;;;1.41;100.00;102418.66;5032592;28;20039;-75
2024/01/29 01:35:34;;;;;;;7.63;3.78;;;;;;;1.37;100.00;102413.34;5047577;28;20040;-75
2024/01/29 01:38:20;;;;;;;6.45;3.72;;;;;;;1.30;100.00;102409.78;5049011;28;20498;-75
2024/01/29 01:41:06;;;;;;;6.60;4.32;;;;;;;1.28;100.00;102411.44;5033762;28;20057;-75
2024/01/29 01:43:51;;;;;;;5.60;3.97;;;;;;;1.26;100.00;102401.00;5046892;28;20040;-75
2024/01/29 01:46:37;;;;;;;6.53;3.90;;;;;;;1.26;100.00;102405.34;5047813;28;20055;-75
2024/01/29 01:49:23;;;;;;;8.52;4.15;;;;;;;1.26;100.00;102410.56;5034783;28;20056;-75
2024/01/29 01:52:09;;;;;;;7.50;4.20;;;;;;;1.26;100.00;102418.38;5033289;28;21522;-75
2024/01/29 01:54:55;;;;;;;5.28;3.58;;;;;;;1.27;100.00;102420.13;5035726;28;20066;-75
2024/01/29 01:57:42;;;;;;;7.63;3.90;;;;;;;1.25;100.00;102416.63;5048190;28;20484;-76
2024/01/29 02:00:28;;;;;;;9.80;4.65;;;;;;;1.25;100.00;102416.63;5037209;28;20124;-75
2024/01/29 02:03:14;;;;;;;6.95;4.15;;;;;;;1.25;100.00;102424.47;5037608;28;20041;-75
2024/01/29 02:06:00;;;;;;;8.43;4.30;;;;;;;1.24;100.00;102433.13;5037208;28;20036;-75
2024/01/29 02:08:45;;;;;;;7.57;4.40;;;;;;;1.24;100.00;102420.09;5049975;28;20380;-75
2024/01/29 02:11:31;;;;;;;8.45;4.20;;;;;;;1.25;100.00;102427.06;5035887;28;20587;-75
2024/01/29 02:14:17;;;;;;;6.38;3.92;;;;;;;1.25;100.00;102416.63;5049707;28;20058;-75
2024/01/29 02:17:03;;;;;;;6.30;4.15;;;;;;;1.25;100.00;102417.47;5050730;28;20411;-75
2024/01/29 02:19:49;;;;;;;7.65;4.78;;;;;;;1.26;100.00;102414.06;5043463;28;20036;-75
2024/01/29 02:22:47;;;;;;;6.78;4.15;;;;;;;1.28;100.00;102421.88;5051812;28;20061;-75
2024/01/29 02:25:33;;;;;;;9.40;4.32;;;;;;;1.30;100.00;102418.47;5043889;28;20040;-75
2024/01/29 02:28:19;;;;;;;8.88;4.75;;;;;;;1.32;100.00;102424.56;5037593;28;20777;-75
2024/01/29 02:31:06;;;;;;;7.57;4.85;;;;;;;1.31;100.00;102425.44;5052466;28;20088;-76
2024/01/29 02:33:51;;;;;;;6.20;4.13;;;;;;;1.31;100.00;102421.97;5029397;28;20040;-76
2024/01/29 02:36:37;;;;;;;8.63;4.80;;;;;;;1.33;100.00;102417.63;5036132;28;20094;-76
2024/01/29 02:39:23;;;;;;;8.05;4.68;;;;;;;1.33;100.00;102417.63;5035610;28;20101;-76
2024/01/29 02:42:09;;;;;;;5.95;4.38;;;;;;;1.33;100.00;102417.63;5048906;28;20052;-76
2024/01/29 02:44:54;;;;;;;8.77;4.53;;;;;;;1.32;100.00;102408.91;5036533;28;20511;-75
2024/01/29 02:47:40;;;;;;;11.13;5.05;;;;;;;1.32;100.00;102397.63;5048174;28;20127;-76
2024/01/29 02:50:26;;;;;;;9.35;4.75;;;;;;;1.31;100.00;102406.31;5041115;28;20048;-77
2024/01/29 02:53:13;;;;;;;9.45;5.35;;;;;;;1.31;100.00;102401.94;5048179;28;20033;-75
2024/01/29 02:55:58;;;;;;;7.65;4.63;;;;;;;1.31;100.00;102395.88;5035400;28;20232;-76
2024/01/29 02:58:44;;;;;;;7.50;4.72;;;;;;;1.30;100.00;102383.66;5034008;28;20480;-76
2024/01/29 03:01:30;;;;;;;7.90;4.25;;;;;;;1.28;100.00;102383.63;5033856;28;20164;-76
2024/01/29 03:04:15;;;;;;;6.45;3.85;;;;;;;1.23;100.00;102411.38;5037085;28;20036;-75
2024/01/29 03:07:01;;;;;;;6.47;4.57;;;;;;;1.20;100.00;102419.16;5034526;28;20032;-75
2024/01/29 03:09:47;;;;;;;6.68;4.47;;;;;;;1.18;100.00;102413.91;5026015;28;20029;-76
2024/01/29 03:12:33;;;;;;;8.18;4.20;;;;;;;1.17;100.00;102406.94;5034278;28;20036;-76
2024/01/29 03:15:19;;;;;;;8.73;4.35;;;;;;;1.17;100.00;102403.41;5032513;28;20068;-76
2024/01/29 03:18:05;;;;;;;5.72;4.35;;;;;;;1.16;100.00;102410.38;5050971;28;20037;-76
2024/01/29 03:20:52;;;;;;;6.43;4.28;;;;;;;1.14;100.00;102409.47;5038766;28;20039;-76
2024/01/29 03:23:38;;;;;;;7.63;4.50;;;;;;;1.13;100.00;102410.31;5035357;28;20062;-77
2024/01/29 03:26:24;;;;;;;7.78;4.47;;;;;;;1.13;100.00;102410.31;5027292;28;20048;-76
2024/01/29 03:29:10;;;;;;;7.72;4.90;;;;;;;1.12;100.00;102403.34;5051181;28;20575;-76
2024/01/29 03:31:56;;;;;;;8.45;4.55;;;;;;;1.15;100.00;102394.69;5035173;28;20101;-77
2024/01/29 03:34:42;;;;;;;8.52;4.13;;;;;;;1.16;100.00;102393.84;5026465;28;20131;-77
2024/01/29 03:37:28;;;;;;;7.95;4.72;;;;;;;1.18;100.00;102400.84;5048609;28;20044;-76
2024/01/29 03:40:14;;;;;;;8.77;4.55;;;;;;;1.18;100.00;102400.84;5049775;28;20612;-76
2024/01/29 03:43:00;;;;;;;7.03;4.57;;;;;;;1.17;100.00;102399.09;5050890;28;20133;-76
2024/01/29 03:45:47;;;;;;;9.23;4.10;;;;;;;1.17;100.00;102406.03;5035393;28;20043;-76
2024/01/29 03:48:33;;;;;;;7.78;4.32;;;;;;;1.16;100.00;102394.72;5049958;28;20044;-75
2024/01/29 03:51:18;;;;;;;10.02;4.40;;;;;;;1.15;100.00;102392.94;5035452;28;20298;-76
2024/01/29 03:54:04;;;;;;;6.72;4.18;;;;;;;1.15;100.00;102406.00;5045451;28;20044;-76
2024/01/29 03:56:50;;;;;;;9.18;4.97;;;;;;;1.13;100.00;102410.31;5047047;28;20187;-75
2024/01/29 03:59:36;;;;;;;9.05;4.75;;;;;;;1.13;100.00;102423.34;5046341;28;20056;-75
2024/01/29 04:02:23;;;;;;;6.80;4.38;;;;;;;1.13;100.00;102428.56;5047138;28;20240;-75
2024/01/29 04:05:09;;;;;;;9.52;4.20;;;;;;;1.12;100.00;102421.59;5046904;28;20115;-75
2024/01/29 04:07:55;;;;;;;10.55;5.10;;;;;;;1.13;100.00;102412.06;5033622;28;20044;-75
2024/01/29 04:10:41;;;;;;;7.63;4.97;;;;;;;1.15;100.00;102399.91;5046262;28;20777;-76
2024/01/29 04:13:26;;;;;;;8.43;5.45;;;;;;;1.15;100.00;102398.16;5046285;28;20040;-77
2024/01/29 04:16:12;;;;;;;6.13;4.40;;;;;;;1.16;100.00;102396.44;5048205;28;20033;-76
2024/01/29 04:18:58;;;;;;;9.45;5.55;;;;;;;1.15;100.00;102398.16;5047509;28;20514;-76
2024/01/29 04:21:44;;;;;;;8.05;5.25;;;;;;;1.16;100.00;102392.13;5044225;28;20640;-76
2024/01/29 04:24:32;;;;;;;9.48;5.13;;;;;;;1.17;100.00;102393.88;5032077;28;20055;-76
2024/01/29 04:27:18;;;;;;;9.40;5.50;;;;;;;1.18;100.00;102385.19;5031716;28;20048;-76
2024/01/29 04:30:04;;;;;;;8.85;5.05;;;;;;;1.21;100.00;102385.25;5028936;28;20051;-75
2024/01/29 04:32:50;;;;;;;10.20;4.70;;;;;;;1.22;100.00;102363.50;5046030;28;20028;-75
2024/01/29 04:35:36;;;;;;;8.90;5.05;;;;;;;1.26;100.00;102376.63;5019892;28;20102;-77
2024/01/29 04:38:22;;;;;;;10.73;5.05;;;;;;;1.26;100.00;102387.06;5048235;28;20380;-76
2024/01/29 04:41:07;;;;;;;8.23;4.80;;;;;;;1.26;100.00;102408.84;5045908;28;20040;-76
2024/01/29 04:43:53;;;;;;;9.27;5.13;;;;;;;1.25;100.00;102393.13;5047241;28;20450;-76
2024/01/29 04:46:39;;;;;;;11.10;5.65;;;;;;;1.25;100.00;102396.59;5020431;28;20047;-76
2024/01/29 04:49:24;;;;;;;9.45;5.13;;;;;;;1.26;100.00;102397.50;5046185;28;20052;-77
2024/01/29 04:52:10;;;;;;;9.52;5.03;;;;;;;1.27;100.00;102404.47;5046052;28;20068;-77
2024/01/29 04:54:56;;;;;;;9.60;5.22;;;;;;;1.27;100.00;102404.47;5034231;28;20093;-77
2024/01/29 04:57:42;;;;;;;6.57;4.78;;;;;;;1.26;100.00;102394.91;5034945;28;20052;-75
2024/01/29 05:00:27;;;;;;;10.85;5.28;;;;;;;1.26;100.00;102397.50;5049287;28;20037;-77
2024/01/29 05:03:13;;;;;;;8.00;4.80;;;;;;;1.25;100.00;102403.56;5047743;28;20032;-76
2024/01/29 05:05:59;;;;;;;8.00;5.10;;;;;;;1.22;100.00;102396.56;5033758;28;20048;-76
2024/01/29 05:08:45;;;;;;;8.90;5.03;;;;;;;1.21;100.00;102384.38;5037789;28;20551;-77
2024/01/29 05:11:31;;;;;;;7.63;5.10;;;;;;;1.20;100.00;102408.72;5032807;28;20499;-76
2024/01/29 05:14:16;;;;;;;8.35;5.20;;;;;;;1.18;100.00;102403.47;5049067;28;20041;-76
2024/01/29 05:17:02;;;;;;;9.70;5.10;;;;;;;1.15;100.00;102398.16;5035549;28;20048;-77
2024/01/29 05:19:51;;;;;;;11.18;5.80;;;;;;;1.13;100.00;102397.25;5034571;28;20265;-76
2024/01/29 05:22:37;;;;;;;8.48;5.20;;;;;;;1.12;100.00;102382.47;5032445;28;20029;-76
2024/01/29 05:25:23;;;;;;;12.68;5.43;;;;;;;1.11;100.00;102372.88;5048471;28;20068;-77
2024/01/29 05:28:08;;;;;;;10.07;5.82;;;;;;;1.12;100.00;102374.63;5049862;28;20036;-75
2024/01/29 05:30:54;;;;;;;8.50;5.00;;;;;;;1.11;100.00;102369.38;5048395;28;20048;-76
2024/01/29 05:33:40;;;;;;;7.32;5.00;;;;;;;1.10;100.00;102376.34;5051062;28;20041;-77
2024/01/29 05:36:26;;;;;;;10.38;5.80;;;;;;;1.10;100.00;102376.34;5050817;28;20036;-77
2024/01/29 05:39:12;;;;;;;11.60;5.53;;;;;;;1.12;100.00;102364.22;5043241;28;20106;-76
2024/01/29 05:41:58;;;;;;;11.45;5.82;;;;;;;1.12;100.00;102366.81;5050166;28;20043;-77
2024/01/29 05:44:44;;;;;;;8.43;5.53;;;;;;;1.12;100.00;102364.22;5039473;28;20044;-76
2024/01/29 05:47:30;;;;;;;9.40;5.32;;;;;;;1.12;100.00;102372.03;5049705;28;20049;-76
2024/01/29 05:50:16;;;;;;;11.15;5.82;;;;;;;1.15;100.00;102379.03;5029695;28;20064;-76
2024/01/29 05:53:02;;;;;;;11.07;6.88;;;;;;;1.15;100.00;102379.03;5029085;28;20404;-78
2024/01/29 05:55:48;;;;;;;10.38;5.97;;;;;;;1.16;100.00;102380.78;5025164;28;20408;-77
2024/01/29 05:58:36;;;;;;;9.25;5.72;;;;;;;1.17;100.00;102383.44;5031330;28;20102;-77
2024/01/29 06:01:22;;;;;;;10.05;5.45;;;;;;;1.18;100.00;102408.69;5033643;28;20162;-75
2024/01/29 06:04:08;;;;;;;12.68;5.90;;;;;;;1.18;100.00;102411.28;5033873;28;20037;-76
2024/01/29 06:06:53;;;;;;;10.02;5.65;;;;;;;1.19;100.00;102410.44;5029188;28;20048;-77
2024/01/29 06:09:39;;;;;;;10.63;5.90;;;;;;;1.21;100.00;102421.78;5028012;28;20460;-76
2024/01/29 06:12:25;;;;;;;10.93;6.38;;;;;;;1.23;100.00;102408.75;5026758;28;20083;-76
2024/01/29 06:15:11;;;;;;;11.30;6.13;;;;;;;1.25;100.00;102414.00;5027815;28;20037;-76
2024/01/29 06:17:56;;;;;;;9.27;5.75;;;;;;;1.25;100.00;102420.09;5028198;28;20101;-77
2024/01/29 06:20:42;;;;;;;10.55;6.47;;;;;;;1.28;100.00;102414.06;5029222;28;20029;-77
2024/01/29 06:23:28;;;;;;;13.13;6.28;;;;;;;1.29;100.00;102411.47;5021420;28;20132;-77
2024/01/29 06:26:14;;;;;;;10.65;6.57;;;;;;;1.30;100.00;102410.63;5006763;28;20050;-76
2024/01/29 06:29:00;;;;;;;10.30;6.38;;;;;;;1.30;100.00;102409.78;5029766;28;20120;-76
2024/01/29 06:31:46;;;;;;;10.57;5.72;;;;;;;1.30;100.00;102399.34;5026884;28;20127;-76
2024/01/29 06:34:33;;;;;;;10.50;6.15;;;;;;;1.30;100.00;102409.78;5015778;28;20032;-76
2024/01/29 06:37:19;;;;;;;11.73;6.18;;;;;;;1.29;100.00;102414.09;5026639;28;20083;-76
2024/01/29 06:40:08;;;;;;;14.02;6.28;;;;;;;1.31;100.00;102411.53;5034667;28;20099;-76
2024/01/29 06:42:57;;;;;;;12.23;6.50;;;;;;;1.30;100.00;102409.78;5017050;28;20037;-77
2024/01/29 06:45:43;;;;;;;10.82;6.28;;;;;;;1.31;100.00;102416.75;5025579;28;20071;-77
2024/01/29 06:48:29;;;;;;;13.18;6.30;;;;;;;1.30;100.00;102426.28;5027245;28;20042;-76
2024/01/29 06:51:17;;;;;;;11.30;6.68;;;;;;;1.30;100.00;102415.84;5025578;28;20162;-77
2024/01/29 06:54:03;;;;;;;10.18;6.28;;;;;;;1.31;100.00;102421.97;5027974;28;20045;-77
2024/01/29 06:56:49;;;;;;;12.32;6.55;;;;;;;1.34;100.00;102408.94;5029778;28;21630;-76
2024/01/29 06:59:35;;;;;;;11.00;6.22;;;;;;;1.34;100.00;102408.94;5039459;28;20041;-76
2024/01/29 07:02:21;;;;;;;12.80;7.20;;;;;;;1.35;100.00;102427.25;5025617;28;20474;-77
2024/01/29 07:05:07;;;;;;;11.82;6.97;;;;;;;1.36;100.00;102425.50;5023828;28;20120;-77
2024/01/29 07:07:53;;;;;;;13.70;7.90;;;;;;;1.38;100.00;102434.28;5014493;28;20664;-76
2024/01/29 07:10:39;;;;;;;16.25;7.47;;;;;;;1.40;100.00;102436.88;5017615;28;20632;-77
2024/01/29 07:13:25;;;;;;;16.67;8.50;;;;;;;1.41;100.00;102438.69;5003114;28;20509;-77
2024/01/29 07:16:11;;;;;;;11.73;7.25;;;;;;;1.40;100.00;102437.78;5024073;28;20381;-78
2024/01/29 07:18:57;;;;;;;11.20;7.20;;;;;;;1.44;100.00;102442.22;5024500;28;20276;-78
2024/01/29 07:21:43;;;;;;;10.80;7.28;;;;;;;1.49;100.00;102442.28;5023005;28;20600;-77
2024/01/29 07:24:28;;;;;;;17.45;8.38;;;;;;;1.53;100.00;102443.22;5025642;28;20080;-77
2024/01/29 07:27:15;;;;;;;12.57;7.15;;;;;;;1.58;100.00;102446.81;5024104;28;20590;-77
2024/01/29 07:30:01;;;;;;;11.52;6.93;;;;;;;1.62;100.00;102440.78;5024825;28;20051;-77
2024/01/29 07:32:47;;;;;;;14.15;7.35;;;;;;;1.65;100.00;102453.91;5012851;28;21572;-77
2024/01/29 07:35:33;;;;;;;13.77;7.70;;;;;;;1.68;100.00;102453.94;4988422;28;20033;-77
2024/01/29 07:38:19;;;;;;;13.10;7.65;;;;;;;1.69;100.00;102454.84;5002120;28;20106;-77
2024/01/29 07:41:04;;;;;;;13.55;7.70;;;;;;;1.67;100.00;102452.19;5025014;28;20469;-77
2024/01/29 07:43:50;;;;;;;15.85;8.00;;;;;;;1.69;100.00;102455.69;5027159;28;20037;-77
2024/01/29 07:46:36;;;;;;;13.82;7.43;;;;;;;1.69;100.00;102453.06;5024967;28;20101;-78
2024/01/29 07:49:22;;;;;;;13.93;7.22;;;;;;;1.70;100.00;102457.44;5027370;28;20118;-77
2024/01/29 07:52:09;;;;;;;13.30;7.65;;;;;;;1.71;100.00;102459.22;5048890;28;20041;-77
2024/01/29 07:54:55;;;;;;;14.10;7.30;;;;;;;1.71;100.00;102461.84;5037539;28;20063;-77
2024/01/29 07:57:40;;;;;;;12.75;7.50;;;;;;;1.72;100.00;102466.22;5024235;28;20110;-77
2024/01/29 08:00:26;;;;;;;13.63;8.10;;;;;;;1.74;100.00;102467.09;5024828;28;20062;-77
2024/01/29 08:03:13;;;;;;;15.43;7.03;;;;;;;1.76;100.00;102472.38;5040348;28;20041;-77
2024/01/29 08:05:59;;;;;;;12.57;7.47;;;;;;;1.78;100.00;102482.84;5051108;28;20053;-77
2024/01/29 08:08:44;;;;;;;14.38;7.80;;;;;;;1.79;100.00;102493.28;5051960;28;20058;-78
2024/01/29 08:11:31;;;;;;;12.93;7.20;;;;;;;1.82;100.00;102487.25;5052378;28;20050;-78
2024/01/29 08:14:16;;;;;;;11.32;7.57;;;;;;;1.84;100.00;102490.75;5037857;28;20043;-77
2024/01/29 08:17:02;;;;;;;12.35;8.00;;;;;;;1.87;100.00;102490.84;5049840;28;20055;-78
2024/01/29 08:19:48;;;;;;;13.82;7.55;;;;;;;1.92;100.00;102489.19;5024238;28;20028;-78
2024/01/29 08:22:34;;;;;;;10.73;7.10;;;;;;;1.95;100.00;102485.75;5050361;28;20407;-78
2024/01/29 08:25:22;;;;;;;16.13;8.82;;;;;;;1.98;100.00;102484.06;5052613;28;20047;-77
2024/01/29 08:28:08;;;;;;;11.95;7.43;;;;;;;2.00;100.00;102481.47;5032848;28;20104;-77
2024/01/29 08:30:55;;;;;;;12.48;7.57;;;;;;;2.01;100.00;102491.94;5046906;28;20025;-77
2024/01/29 08:33:42;;;;;;;13.10;7.95;;;;;;;2.02;100.00;102500.69;5046787;28;20048;-78
2024/01/29 08:36:27;;;;;;;13.50;7.68;;;;;;;2.03;100.00;102505.03;5048166;28;20606;-77
2024/01/29 08:39:13;;;;;;;14.30;7.65;;;;;;;2.03;100.00;102492.84;5029862;28;20033;-77
2024/01/29 08:41:59;;;;;;;13.98;8.13;;;;;;;2.02;100.00;102500.69;5017912;28;20040;-78
2024/01/29 08:44:46;;;;;;;13.82;7.72;;;;;;;2.05;100.00;102507.69;5025215;28;21253;-78
2024/01/29 08:47:31;;;;;;;12.48;7.57;;;;;;;2.07;100.00;102513.81;5034252;28;20044;-79
2024/01/29 08:50:17;;;;;;;13.38;8.20;;;;;;;2.08;100.00;102511.22;5022181;28;20072;-77
2024/01/29 08:53:05;;;;;;;13.20;7.28;;;;;;;2.14;100.00;102508.69;5035717;28;20033;-76
2024/01/29 08:55:51;;;;;;;15.35;8.25;;;;;;;2.19;100.00;102502.69;5022600;28;20060;-76
2024/01/29 08:58:37;;;;;;;12.48;7.45;;;;;;;2.25;100.00;102511.50;5033955;28;20502;-76
2024/01/29 09:01:26;;;;;;;13.80;7.80;;;;;;;2.29;100.00;102518.53;5049983;28;20609;-76
2024/01/29 09:04:12;;;;;;;13.35;8.57;;;;;;;2.37;100.00;102512.53;5036450;28;20120;-77
2024/01/29 09:06:58;;;;;;;12.68;8.23;;;;;;;2.43;100.00;102502.19;5013899;28;20127;-76
2024/01/29 09:09:44;;;;;;;12.20;7.70;;;;;;;2.50;100.00;102518.84;5039746;28;20052;-76
2024/01/29 09:12:29;;;;;;;13.18;7.63;;;;;;;2.57;100.00;102513.72;5050008;28;20032;-77
2024/01/29 09:15:15;;;;;;;11.45;7.55;;;;;;;2.64;100.00;102519.94;5046620;28;21017;-77
2024/01/29 09:18:01;;;;;;;13.75;8.30;;;;;;;2.71;100.00;102518.28;5055747;28;20136;-77
2024/01/29 09:20:47;;;;;;;15.75;8.55;;;;;;;2.79;100.00;102510.53;5039525;28;20174;-78
2024/01/29 09:23:32;;;;;;;13.63;8.20;;;;;;;2.85;100.00;102514.09;5056072;28;20037;-77
2024/01/29 09:26:18;;;;;;;14.32;8.05;;;;;;;2.95;100.00;102516.88;5053857;28;20043;-77
2024/01/29 09:29:04;;;;;;;15.10;8.07;;;;;;;3.03;100.00;102530.94;5040649;28;20051;-78
2024/01/29 09:31:49;;;;;;;13.15;8.20;;;;;;;3.11;100.00;102523.19;5051123;28;21022;-77
2024/01/29 09:34:35;;;;;;;13.55;8.18;;;;;;;3.19;100.00;102523.25;5052089;28;20028;-77
2024/01/29 09:37:21;;;;;;;14.85;8.25;;;;;;;3.29;100.00;102519.91;5038686;28;20044;-76
2024/01/29 09:40:11;;;;;;;14.38;8.82;;;;;;;3.39;100.00;102516.53;5030071;28;20047;-77
2024/01/29 09:42:57;;;;;;;14.20;8.45;;;;;;;3.48;100.00;102523.63;5035406;28;21307;-77
2024/01/29 09:45:43;;;;;;;13.48;8.57;;;;;;;3.58;100.00;102523.69;5034328;28;20133;-78
2024/01/29 09:48:30;;;;;;;15.48;8.70;;;;;;;3.65;100.00;102515.06;5037872;28;20712;-77
2024/01/29 09:51:16;;;;;;;15.23;9.15;;;;;;;3.74;100.00;102522.13;5036812;28;20052;-77
2024/01/29 09:54:05;;;;;;;15.15;8.65;;;;;;;3.83;100.00;102522.25;5024049;28;20484;-77
2024/01/29 09:56:51;;;;;;;14.48;8.52;;;;;;;3.90;100.00;102521.44;5049553;28;20387;-77
2024/01/29 09:59:40;;;;;;;15.02;8.68;;;;;;;3.97;100.00;102517.09;5033837;28;20403;-78
2024/01/29 10:02:26;;;;;;;14.77;8.75;;;;;;;4.04;100.00;102524.16;5037628;28;20036;-78
2024/01/29 10:05:12;;;;;;;14.95;8.60;;;;;;;4.10;100.00;102519.84;5042071;28;20025;-78
2024/01/29 10:08:01;;;;;;;11.65;8.18;;;;;;;4.18;100.00;102536.50;5054251;28;20045;-77
2024/01/29 10:10:53;;;;;;;14.63;9.02;;;;;;;4.24;100.00;102547.06;5039747;28;20386;-77
2024/01/29 10:13:39;;;;;;;15.65;8.10;;;;;;;4.30;100.00;102551.50;5052903;28;20044;-78
2024/01/29 10:16:27;;;;;;;13.55;8.25;;;;;;;4.33;100.00;102551.50;5054896;28;21856;-77
2024/01/29 10:19:14;;;;;;;15.60;8.75;;;;;;;4.38;100.00;102554.16;5030793;28;20041;-77
2024/01/29 10:21:59;;;;;;;15.95;8.75;;;;;;;4.41;100.00;102555.06;5038774;28;20040;-78
2024/01/29 10:24:45;;;;;;;13.13;7.75;;;;;;;4.47;100.00;102549.00;5032998;28;20086;-77
2024/01/29 10:27:31;;;;;;;11.65;7.50;;;;;;;4.52;100.00;102556.91;5025115;28;20036;-77
2024/01/29 10:30:17;;;;;;;13.35;7.97;;;;;;;4.56;100.00;102558.66;5042181;28;20041;-77
2024/01/29 10:33:03;;;;;;;14.88;8.20;;;;;;;4.57;100.00;102557.81;5054727;28;20040;-77
2024/01/29 10:35:49;;;;;;;14.30;8.05;;;;;;;4.60;100.00;102561.34;5054065;28;20111;-77
2024/01/29 10:38:37;;;;;;;14.20;8.35;;;;;;;4.65;100.00;102570.97;5052666;28;20029;-78
2024/01/29 10:41:24;;;;;;;16.67;9.10;;;;;;;4.69;100.00;102578.88;5028055;28;20422;-78
2024/01/29 10:44:11;;;;;;;16.40;9.40;;;;;;;4.73;100.00;102588.53;5040358;28;20033;-77
2024/01/29 10:46:59;;;;;;;15.98;8.90;;;;;;;4.77;100.00;102586.81;5049219;28;20071;-76
2024/01/29 10:49:45;;;;;;;14.80;8.57;;;;;;;4.80;100.00;102586.81;5040116;28;20053;-76
2024/01/29 10:52:31;;;;;;;13.23;8.48;;;;;;;4.83;100.00;102589.47;5040049;28;20056;-75
2024/01/29 10:55:18;;;;;;;12.27;8.02;;;;;;;4.86;100.00;102578.13;5045415;28;20440;-76
2024/01/29 10:58:05;;;;;;;17.13;8.65;;;;;;;4.90;100.00;102593.00;5040549;28;20041;-80
2024/01/29 11:00:51;;;;;;;14.88;9.07;;;;;;;4.94;100.00;102581.66;5051298;28;20037;-80
2024/01/29 11:03:37;;;;;;;16.02;9.10;;;;;;;4.99;100.00;102584.31;5035834;28;20125;-80
2024/01/29 11:06:29;;;;;;;15.98;8.23;;;;;;;5.02;100.00;102585.22;5050965;28;20049;-79
2024/01/29 11:09:18;;;;;;;19.35;8.98;;;;;;;5.03;100.00;102581.72;5037142;28;20518;-79
2024/01/29 11:12:07;;;;;;;19.15;8.90;;;;;;;5.06;100.00;102575.59;5036069;28;20514;-80
2024/01/29 11:14:58;;;;;;;17.00;8.80;;;;;;;5.08;100.00;102566.00;5038248;28;20037;-78
2024/01/29 11:17:44;;;;;;;21.63;9.40;;;;;;;5.13;100.00;102577.38;5037795;28;20063;-79
2024/01/29 11:20:31;;;;;;;19.85;9.52;;;;;;;5.11;100.00;102570.38;5038251;28;20029;-78
2024/01/29 11:23:21;;;;;;;26.33;10.55;;;;;;;5.14;100.00;102571.25;5049995;28;20462;-77
2024/01/29 11:26:11;;;;;;;30.35;10.63;;;;;;;5.15;100.00;102577.41;5035939;28;20994;-79
2024/01/29 11:29:00;;;;;;;28.83;10.60;;;;;;;5.14;100.00;102578.28;5040807;28;20130;-78
2024/01/29 11:31:48;;;;;;;25.38;10.32;;;;;;;5.13;100.00;102580.00;5024778;28;20274;-79
2024/01/29 11:34:34;;;;;;;24.65;10.35;;;;;;;5.11;100.00;102573.00;5037105;28;20070;-79
2024/01/29 11:37:29;;;;;;;27.00;10.90;;;;;;;5.09;100.00;102567.75;5053314;28;20143;-79
2024/01/29 11:40:46;;;;;;;23.92;9.63;;;;;;;5.08;100.00;102578.25;5037797;28;20567;-78
2024/01/29 11:43:32;;;;;;;19.45;9.73;;;;;;;5.10;100.00;102569.50;5052678;28;20450;-78
2024/01/29 11:46:22;;;;;;;21.80;9.75;;;;;;;5.11;100.00;102581.75;5037481;28;20457;-79
2024/01/29 11:49:08;;;;;;;17.23;9.57;;;;;;;5.13;100.00;102569.50;5052955;28;20037;-78
2024/01/29 11:51:54;;;;;;;17.42;9.85;;;;;;;5.17;100.00;102575.66;5051240;28;20064;-78
2024/01/29 11:54:40;;;;;;;14.32;9.20;;;;;;;5.18;100.00;102580.06;5038573;28;20045;-78
2024/01/29 11:57:29;;;;;;;14.20;8.93;;;;;;;5.22;100.00;102578.31;5037662;28;20040;-79
2024/01/29 12:00:19;;;;;;;13.98;9.40;;;;;;;5.22;100.00;102576.56;5053030;28;20025;-78
2024/01/29 12:03:07;;;;;;;19.83;9.30;;;;;;;5.24;100.00;102585.31;5053545;28;20044;-79
2024/01/29 12:05:56;;;;;;;14.75;8.77;;;;;;;5.30;100.00;102576.59;5039997;28;20029;-77
2024/01/29 12:08:47;;;;;;;16.10;9.52;;;;;;;5.34;100.00;102577.50;5052580;28;20040;-77
2024/01/29 12:11:33;;;;;;;14.52;8.93;;;;;;;5.40;100.00;102574.91;5039430;28;20037;-78
2024/01/29 12:14:18;;;;;;;17.05;9.85;;;;;;;5.44;100.00;102571.38;5024417;28;20055;-77
2024/01/29 12:17:06;;;;;;;14.20;9.40;;;;;;;5.51;100.00;102575.78;5037831;28;20511;-77
2024/01/29 12:19:52;;;;;;;14.95;10.02;;;;;;;5.57;100.00;102575.81;5029032;28;20697;-77
2024/01/29 12:22:39;;;;;;;14.35;9.07;;;;;;;5.61;100.00;102567.97;5054451;28;20037;-79
2024/01/29 12:25:24;;;;;;;17.05;9.68;;;;;;;5.68;100.00;102564.47;5045820;28;20101;-78
2024/01/29 12:28:12;;;;;;;17.45;9.70;;;;;;;5.76;100.00;102565.38;5038208;28;20450;-78
2024/01/29 12:31:06;;;;;;;17.77;9.45;;;;;;;5.84;100.00;102566.25;5037719;28;20036;-78
2024/01/29 12:33:52;;;;;;;15.48;9.73;;;;;;;5.92;100.00;102565.38;5050639;28;20395;-77
2024/01/29 12:36:38;;;;;;;15.75;9.63;;;;;;;5.99;100.00;102567.16;5027112;28;20040;-79
2024/01/29 12:39:24;;;;;;;17.42;9.95;;;;;;;6.07;100.00;102557.56;5031021;28;20037;-79
2024/01/29 12:42:14;;;;;;;17.45;9.00;;;;;;;6.14;100.00;102563.69;5041694;28;20033;-77
2024/01/29 12:45:08;;;;;;;16.23;9.60;;;;;;;6.19;100.00;102569.84;5054162;28;20040;-77
2024/01/29 12:48:19;;;;;;;16.65;9.27;;;;;;;6.24;100.00;102567.22;5053782;28;20307;-78